Time;durP1;ratioP1;P1;durP2;ratioP2;P2;SDS_P1;SDS_P2;PMS_P1;PMS_P2;Temp;Humidity;BMP_temperature;BMP_pressure;BME280_temperature;BME280_humidity;BME280_pressure;Samples;Min_cycle;Max_cycle;Signal;HPM_P1;HPM_P2
2021/01/01 00:01:53;;;;;;;42.72;32.53;;;3.00;99.90;;;;;;5093682;28;20230;-40
2021/01/01 00:04:20;;;;;;;42.28;31.70;;;3.00;99.90;;;;;;5093557;28;20211;-41
2021/01/01 00:06:49;;;;;;;38.35;31.73;;;3.00;99.90;;;;;;5093621;28;20290;-39
2021/01/01 00:09:16;;;;;;;36.08;29.02;;;3.00;99.90;;;;;;5093264;28;20303;-40
2021/01/01 00:11:46;;;;;;;34.15;28.98;;;2.90;99.90;;;;;;5093048;28;20325;-40
2021/01/01 00:14:13;;;;;;;40.35;31.23;;;2.90;99.90;;;;;;5093297;28;20250;-40
2021/01/01 00:16:40;;;;;;;34.20;29.02;;;2.90;99.90;;;;;;5093497;28;20294;-40
2021/01/01 00:19:08;;;;;;;34.85;27.77;;;2.90;99.90;;;;;;5093257;28;20235;-40
2021/01/01 00:21:35;;;;;;;32.92;26.23;;;2.80;99.90;;;;;;5093240;28;20242;-40
2021/01/01 00:24:03;;;;;;;33.28;27.08;;;2.80;99.90;;;;;;5092902;28;20572;-40
2021/01/01 00:26:30;;;;;;;36.47;28.00;;;2.80;99.90;;;;;;5093100;28;20672;-40
2021/01/01 00:28:57;;;;;;;33.22;27.23;;;2.80;99.90;;;;;;5093442;28;20298;-40
2021/01/01 00:31:25;;;;;;;30.20;26.90;;;2.70;99.90;;;;;;5092932;28;20741;-40
2021/01/01 00:33:53;;;;;;;38.40;32.58;;;2.70;99.90;;;;;;5092866;28;20663;-40
2021/01/01 00:36:22;;;;;;;52.57;39.80;;;2.60;99.90;;;;;;5093064;28;20292;-39
2021/01/01 00:38:51;;;;;;;43.77;35.07;;;2.60;99.90;;;;;;5092779;28;20289;-39
2021/01/01 00:41:24;;;;;;;42.90;36.58;;;2.50;99.90;;;;;;5093050;28;20260;-40
2021/01/01 00:43:53;;;;;;;46.17;37.35;;;2.50;99.90;;;;;;5092775;28;20202;-40
2021/01/01 00:46:20;;;;;;;49.55;36.05;;;2.50;99.90;;;;;;5092496;28;20245;-39
2021/01/01 00:48:47;;;;;;;48.92;38.45;;;2.50;99.90;;;;;;5092563;28;20255;-39
2021/01/01 00:51:14;;;;;;;48.78;40.03;;;2.50;99.90;;;;;;5092415;28;20219;-40
2021/01/01 00:53:46;;;;;;;44.80;35.87;;;2.50;99.90;;;;;;5092707;28;20231;-40
2021/01/01 00:56:19;;;;;;;42.93;35.67;;;2.50;99.90;;;;;;5092714;28;20243;-40
2021/01/01 00:58:46;;;;;;;45.43;35.27;;;2.50;99.90;;;;;;5092523;28;20221;-40
2021/01/01 01:01:13;;;;;;;46.25;34.50;;;2.40;99.90;;;;;;5092341;28;20238;-40
2021/01/01 01:03:40;;;;;;;44.00;33.22;;;2.40;99.90;;;;;;5092377;28;20249;-40
2021/01/01 01:06:07;;;;;;;48.60;36.72;;;2.40;99.90;;;;;;5092595;28;20279;-40
2021/01/01 01:08:34;;;;;;;46.08;34.50;;;2.30;99.90;;;;;;5092492;28;20202;-40
2021/01/01 01:11:03;;;;;;;48.67;33.60;;;2.40;99.90;;;;;;5092317;28;20329;-40
2021/01/01 01:13:30;;;;;;;32.17;27.07;;;2.40;99.90;;;;;;5092371;28;20206;-40
2021/01/01 01:15:57;;;;;;;31.00;25.00;;;2.30;99.90;;;;;;5092337;28;20206;-40
2021/01/01 01:18:24;;;;;;;34.58;27.35;;;2.40;99.90;;;;;;5092269;28;20767;-40
2021/01/01 01:20:51;;;;;;;30.42;25.55;;;2.50;99.90;;;;;;5092550;28;20207;-40
2021/01/01 01:23:18;;;;;;;28.98;24.10;;;2.50;99.90;;;;;;5092255;28;20246;-40
2021/01/01 01:25:45;;;;;;;27.00;21.13;;;2.60;99.90;;;;;;5092697;28;20558;-41
2021/01/01 01:28:14;;;;;;;27.30;21.80;;;2.60;99.90;;;;;;5092282;28;20211;-40
2021/01/01 01:30:41;;;;;;;28.58;22.48;;;2.70;99.90;;;;;;5091995;28;20317;-41
2021/01/01 01:33:08;;;;;;;20.42;18.33;;;2.70;99.90;;;;;;5092241;28;20712;-40
2021/01/01 01:35:36;;;;;;;28.23;19.85;;;2.70;99.90;;;;;;5091701;28;20215;-40
2021/01/01 01:38:04;;;;;;;21.83;16.65;;;2.70;99.90;;;;;;5092147;28;20207;-40
2021/01/01 01:40:31;;;;;;;20.40;15.83;;;2.80;99.90;;;;;;5092083;28;20245;-40
2021/01/01 01:42:58;;;;;;;26.60;18.77;;;2.80;99.90;;;;;;5092039;28;20207;-40
2021/01/01 01:45:26;;;;;;;21.05;16.40;;;2.80;99.90;;;;;;5092046;28;20232;-39
2021/01/01 01:47:53;;;;;;;20.85;17.73;;;2.90;99.90;;;;;;5092176;28;20213;-41
2021/01/01 01:50:21;;;;;;;23.65;18.02;;;2.90;99.90;;;;;;5092098;28;20289;-40
2021/01/01 01:52:49;;;;;;;20.35;15.55;;;2.90;99.90;;;;;;5092058;28;20293;-40
2021/01/01 01:55:16;;;;;;;18.77;14.82;;;2.90;99.90;;;;;;5091644;28;20746;-42
2021/01/01 01:57:44;;;;;;;22.42;16.13;;;2.90;99.90;;;;;;5091879;28;20206;-40
2021/01/01 02:00:33;;;;;;;18.83;15.25;;;2.90;99.90;;;;;;5091643;28;20211;-39
2021/01/01 02:03:01;;;;;;;20.57;16.93;;;2.90;99.90;;;;;;5091933;28;20279;-40
2021/01/01 02:05:29;;;;;;;22.35;17.65;;;2.90;99.90;;;;;;5091169;28;20665;-40
2021/01/01 02:07:56;;;;;;;16.88;14.93;;;2.90;99.90;;;;;;5091787;28;20298;-39
2021/01/01 02:10:23;;;;;;;15.13;12.85;;;2.90;99.90;;;;;;5091316;28;20317;-40
2021/01/01 02:12:50;;;;;;;16.45;13.80;;;2.80;99.90;;;;;;5092018;28;20643;-39
2021/01/01 02:15:17;;;;;;;17.77;13.27;;;2.80;99.90;;;;;;5092032;28;20253;-40
2021/01/01 02:17:44;;;;;;;16.48;13.13;;;2.80;99.90;;;;;;5091613;28;20242;-39
2021/01/01 02:20:13;;;;;;;14.73;13.13;;;2.80;99.90;;;;;;5091679;28;20213;-39
2021/01/01 02:22:41;;;;;;;17.48;13.85;;;2.80;99.90;;;;;;5091464;28;20242;-39
2021/01/01 02:25:10;;;;;;;17.60;14.23;;;2.80;99.90;;;;;;5091335;28;20230;-39
2021/01/01 02:27:38;;;;;;;18.73;15.63;;;2.70;99.90;;;;;;5091788;28;20206;-39
2021/01/01 02:30:15;;;;;;;15.07;13.50;;;2.70;99.90;;;;;;5091705;28;20202;-39
2021/01/01 02:32:42;;;;;;;16.42;13.20;;;2.60;99.90;;;;;;5091405;28;20226;-39
2021/01/01 02:35:10;;;;;;;20.77;13.95;;;2.60;99.90;;;;;;5091636;28;20586;-39
2021/01/01 02:37:37;;;;;;;15.55;13.75;;;2.50;99.90;;;;;;5091515;28;20243;-39
2021/01/01 02:40:06;;;;;;;16.33;12.73;;;2.50;99.90;;;;;;5091539;28;20213;-39
2021/01/01 02:42:34;;;;;;;16.95;12.90;;;2.50;99.90;;;;;;5091757;28;20221;-39
2021/01/01 02:45:01;;;;;;;16.20;14.35;;;2.50;99.90;;;;;;5091557;28;20573;-38
2021/01/01 02:47:29;;;;;;;16.38;13.40;;;2.50;99.90;;;;;;5091248;28;20257;-39
2021/01/01 02:49:56;;;;;;;14.43;11.98;;;2.50;99.90;;;;;;5094579;28;20239;-39
2021/01/01 02:52:23;;;;;;;13.95;11.90;;;2.50;99.90;;;;;;5094990;28;20226;-39
2021/01/01 02:54:50;;;;;;;16.02;11.65;;;2.60;99.90;;;;;;5094971;28;20293;-39
2021/01/01 02:57:18;;;;;;;13.43;11.05;;;2.60;99.90;;;;;;5095025;28;20206;-40
2021/01/01 02:59:45;;;;;;;16.30;12.87;;;2.60;99.90;;;;;;5094941;28;20220;-39
2021/01/01 03:02:12;;;;;;;16.75;13.77;;;2.60;99.90;;;;;;5094680;28;20237;-40
2021/01/01 03:04:39;;;;;;;14.80;13.23;;;2.60;99.90;;;;;;5094752;28;20210;-40
2021/01/01 03:07:06;;;;;;;15.37;13.80;;;2.70;99.90;;;;;;5094878;28;20207;-40
2021/01/01 03:09:33;;;;;;;15.02;13.43;;;2.80;99.90;;;;;;5094709;28;20203;-39
2021/01/01 03:12:01;;;;;;;16.60;14.18;;;2.90;99.90;;;;;;5094444;28;20659;-41
2021/01/01 03:14:28;;;;;;;19.10;15.30;;;2.90;99.80;;;;;;5094784;28;20735;-40
2021/01/01 03:16:55;;;;;;;32.35;23.45;;;2.80;99.80;;;;;;5094491;28;20234;-40
2021/01/01 03:19:22;;;;;;;17.55;15.73;;;2.80;99.90;;;;;;5094522;28;20210;-40
2021/01/01 03:21:49;;;;;;;19.30;15.40;;;2.80;99.90;;;;;;5094486;28;20298;-40
2021/01/01 03:24:16;;;;;;;16.33;13.23;;;2.90;99.90;;;;;;5094442;28;20299;-39
2021/01/01 03:26:43;;;;;;;14.40;12.50;;;2.90;99.80;;;;;;5094454;28;20299;-41
2021/01/01 03:29:10;;;;;;;16.83;13.90;;;3.00;99.80;;;;;;5094158;28;20292;-39
2021/01/01 03:31:38;;;;;;;15.20;13.60;;;3.00;99.70;;;;;;5094185;28;20313;-39
2021/01/01 03:34:05;;;;;;;16.80;14.27;;;2.90;99.80;;;;;;5094574;28;20234;-40
2021/01/01 03:36:33;;;;;;;20.23;16.30;;;2.80;99.90;;;;;;5094721;28;20206;-40
2021/01/01 03:39:00;;;;;;;16.65;14.23;;;2.70;99.90;;;;;;5094361;28;20214;-39
2021/01/01 03:41:27;;;;;;;17.13;15.27;;;2.70;99.90;;;;;;5094184;28;20297;-40
2021/01/01 03:43:54;;;;;;;16.45;14.23;;;2.80;99.90;;;;;;5093949;28;20314;-40
2021/01/01 03:46:21;;;;;;;15.32;13.75;;;2.90;99.90;;;;;;5093945;28;20232;-40
2021/01/01 03:48:48;;;;;;;17.52;14.05;;;2.90;99.90;;;;;;5094107;28;20282;-39
2021/01/01 03:51:16;;;;;;;17.65;14.32;;;2.90;99.90;;;;;;5093821;28;20219;-39
2021/01/01 03:53:43;;;;;;;18.58;15.10;;;2.90;99.90;;;;;;5093935;28;20202;-40
2021/01/01 03:56:11;;;;;;;16.33;14.68;;;2.80;99.90;;;;;;5093834;28;20252;-40
2021/01/01 03:58:38;;;;;;;18.95;14.15;;;2.80;99.90;;;;;;5093048;28;20661;-40
2021/01/01 04:01:05;;;;;;;18.13;15.25;;;2.80;99.90;;;;;;5093850;28;20281;-40
2021/01/01 04:03:33;;;;;;;16.67;14.43;;;2.90;99.90;;;;;;5093663;28;20665;-40
2021/01/01 04:06:01;;;;;;;19.55;14.85;;;3.00;99.90;;;;;;5093707;28;20206;-40
2021/01/01 04:08:28;;;;;;;18.85;15.85;;;3.00;99.90;;;;;;5093519;28;20242;-39
2021/01/01 04:10:54;;;;;;;17.95;14.07;;;3.00;99.90;;;;;;5093369;28;20270;-39
2021/01/01 04:13:21;;;;;;;18.25;14.18;;;3.00;99.90;;;;;;5093417;28;20688;-40
2021/01/01 04:15:48;;;;;;;16.08;14.30;;;3.00;99.90;;;;;;5093472;28;20203;-40
2021/01/01 04:18:16;;;;;;;16.05;13.38;;;3.00;99.90;;;;;;5093451;28;20297;-40
2021/01/01 04:20:43;;;;;;;18.93;14.50;;;3.10;99.90;;;;;;5093336;28;20213;-40
2021/01/01 04:23:11;;;;;;;15.35;13.63;;;3.20;99.90;;;;;;5093313;28;20321;-40
2021/01/01 04:25:38;;;;;;;15.98;14.20;;;3.30;99.80;;;;;;5093044;28;20393;-40
2021/01/01 04:28:05;;;;;;;16.50;13.65;;;3.40;99.70;;;;;;5093624;28;20286;-40
2021/01/01 04:30:32;;;;;;;16.85;13.98;;;3.40;99.60;;;;;;5093223;28;20218;-39
2021/01/01 04:32:59;;;;;;;18.03;14.50;;;3.50;99.50;;;;;;5093068;28;20325;-40
2021/01/01 04:35:26;;;;;;;17.95;15.13;;;3.50;99.40;;;;;;5092809;28;20298;-40
2021/01/01 04:37:53;;;;;;;19.07;15.03;;;3.50;99.70;;;;;;5092794;28;20226;-40
2021/01/01 04:40:21;;;;;;;21.85;16.60;;;3.50;99.40;;;;;;5092673;28;20317;-39
2021/01/01 04:42:48;;;;;;;20.13;16.25;;;3.40;99.50;;;;;;5092912;28;20234;-40
2021/01/01 04:45:16;;;;;;;17.83;15.93;;;3.40;99.60;;;;;;5092937;28;20206;-40
2021/01/01 04:47:45;;;;;;;19.67;16.25;;;3.30;99.80;;;;;;5092700;28;20264;-40
2021/01/01 04:50:14;;;;;;;20.00;16.58;;;3.20;99.90;;;;;;5092765;28;20284;-40
2021/01/01 04:52:43;;;;;;;19.60;17.33;;;3.20;99.90;;;;;;5092540;28;20313;-40
2021/01/01 04:55:11;;;;;;;19.00;16.58;;;3.20;99.90;;;;;;5092498;28;20325;-40
2021/01/01 04:57:39;;;;;;;20.33;16.70;;;3.20;99.90;;;;;;5092800;28;20316;-40
2021/01/01 05:00:07;;;;;;;21.73;17.42;;;3.20;99.90;;;;;;5092456;28;20668;-40
2021/01/01 05:02:34;;;;;;;22.58;16.38;;;3.20;99.90;;;;;;5092383;28;20238;-40
2021/01/01 05:05:02;;;;;;;20.92;16.05;;;3.10;99.90;;;;;;5092401;28;20683;-40
2021/01/01 05:07:29;;;;;;;19.13;16.03;;;3.20;99.90;;;;;;5092206;28;20293;-40
2021/01/01 05:09:56;;;;;;;18.55;15.60;;;3.20;99.90;;;;;;5091895;28;20203;-40
2021/01/01 05:12:31;;;;;;;19.50;15.82;;;3.30;99.90;;;;;;5091852;28;20230;-40
2021/01/01 05:14:59;;;;;;;21.52;15.27;;;3.20;99.90;;;;;;5092423;28;20253;-40
2021/01/01 05:17:34;;;;;;;19.40;15.68;;;3.20;99.90;;;;;;5092214;28;20221;-40
2021/01/01 05:20:06;;;;;;;18.35;14.52;;;3.20;99.90;;;;;;5092114;28;20301;-40
2021/01/01 05:22:34;;;;;;;19.52;15.07;;;3.10;99.90;;;;;;5092236;28;20286;-40
2021/01/01 05:25:15;;;;;;;20.42;15.73;;;3.10;99.90;;;;;;5092028;28;20214;-40
2021/01/01 05:27:47;;;;;;;18.90;16.40;;;3.10;99.90;;;;;;5092078;28;20302;-40
2021/01/01 05:30:16;;;;;;;18.98;15.20;;;3.10;99.90;;;;;;5092203;28;20294;-40
2021/01/01 05:32:52;;;;;;;18.02;13.73;;;3.10;99.90;;;;;;5091899;28;20233;-39
2021/01/01 05:35:27;;;;;;;20.15;15.23;;;3.10;99.90;;;;;;5092170;28;20233;-41
2021/01/01 05:37:54;;;;;;;16.43;14.73;;;3.10;99.90;;;;;;5092078;28;20626;-41
2021/01/01 05:40:30;;;;;;;18.55;14.60;;;3.20;99.90;;;;;;5092018;28;20289;-40
2021/01/01 05:43:16;;;;;;;21.42;15.77;;;3.20;99.90;;;;;;5091787;28;20221;-40
2021/01/01 05:45:44;;;;;;;17.60;15.73;;;3.20;99.90;;;;;;5091976;28;20244;-41
2021/01/01 05:48:11;;;;;;;18.90;15.45;;;3.20;99.90;;;;;;5091735;28;20214;-39
2021/01/01 05:50:38;;;;;;;17.98;14.95;;;3.20;99.90;;;;;;5092016;28;20212;-41
2021/01/01 05:53:13;;;;;;;16.58;13.15;;;3.10;99.90;;;;;;5091736;28;20265;-40
2021/01/01 05:55:40;;;;;;;17.55;15.18;;;3.20;99.90;;;;;;5092084;28;20652;-40
2021/01/01 05:58:24;;;;;;;18.85;14.93;;;3.20;99.90;;;;;;5091750;28;20703;-40
2021/01/01 06:00:54;;;;;;;20.05;14.68;;;3.10;99.90;;;;;;5091775;28;20234;-41
2021/01/01 06:03:33;;;;;;;18.80;15.18;;;3.00;99.90;;;;;;5091827;28;20210;-41
2021/01/01 06:06:04;;;;;;;17.27;15.13;;;2.80;99.90;;;;;;5091792;28;20260;-41
2021/01/01 06:08:33;;;;;;;33.90;30.40;;;2.70;99.90;;;;;;5091679;28;20633;-41
2021/01/01 06:11:01;;;;;;;20.83;18.60;;;2.60;99.90;;;;;;5091350;28;20321;-41
2021/01/01 06:13:32;;;;;;;19.67;16.75;;;2.60;99.90;;;;;;5091578;28;20264;-41
2021/01/01 06:16:02;;;;;;;21.35;16.38;;;2.60;99.90;;;;;;5091629;28;20229;-40
2021/01/01 06:18:30;;;;;;;20.75;14.90;;;2.50;99.90;;;;;;5091593;28;20301;-41
2021/01/01 06:21:00;;;;;;;17.50;15.63;;;2.60;99.90;;;;;;5091290;28;20726;-41
2021/01/01 06:23:33;;;;;;;18.05;15.45;;;2.60;99.90;;;;;;5094430;28;20210;-42
2021/01/01 06:26:01;;;;;;;18.15;14.88;;;2.70;99.90;;;;;;5095447;28;20241;-43
2021/01/01 06:28:31;;;;;;;17.92;14.10;;;2.70;99.90;;;;;;5095355;28;20305;-42
2021/01/01 06:31:00;;;;;;;17.20;14.65;;;2.70;99.90;;;;;;5095199;28;20206;-41
2021/01/01 06:33:31;;;;;;;16.90;14.07;;;2.70;99.90;;;;;;5095414;28;20570;-41
2021/01/01 06:35:58;;;;;;;18.37;15.27;;;2.70;99.90;;;;;;5095347;28;20301;-41
2021/01/01 06:38:39;;;;;;;22.25;16.48;;;2.70;99.90;;;;;;5095063;28;20692;-39
2021/01/01 06:41:12;;;;;;;24.73;16.27;;;2.70;99.90;;;;;;5095106;28;20268;-43
2021/01/01 06:43:57;;;;;;;25.60;18.55;;;2.70;99.90;;;;;;5095182;28;20206;-41
2021/01/01 06:46:35;;;;;;;24.57;18.63;;;2.80;99.90;;;;;;5095074;28;20214;-42
2021/01/01 06:49:04;;;;;;;23.38;17.20;;;2.80;99.90;;;;;;5094872;28;20206;-40
2021/01/01 06:51:31;;;;;;;20.00;16.30;;;2.90;99.90;;;;;;5094632;28;20231;-40
2021/01/01 06:54:11;;;;;;;18.88;14.93;;;2.90;99.90;;;;;;5094743;28;20615;-40
2021/01/01 06:56:41;;;;;;;17.42;14.73;;;3.00;99.90;;;;;;5094899;28;20743;-40
2021/01/01 06:59:13;;;;;;;22.85;16.70;;;3.10;99.90;;;;;;5094974;28;20210;-40
2021/01/01 07:01:43;;;;;;;21.83;15.73;;;3.20;99.90;;;;;;5094685;28;20653;-41
2021/01/01 07:04:10;;;;;;;18.83;16.13;;;3.20;99.90;;;;;;5094511;28;20669;-40
2021/01/01 07:06:41;;;;;;;19.92;15.77;;;3.20;99.90;;;;;;5094700;28;20241;-40
2021/01/01 07:09:13;;;;;;;17.45;14.90;;;3.30;99.90;;;;;;5094602;28;20290;-40
2021/01/01 07:11:44;;;;;;;17.45;14.32;;;3.30;99.90;;;;;;5094365;28;20325;-40
2021/01/01 07:14:13;;;;;;;16.73;14.43;;;3.30;99.90;;;;;;5094514;28;20211;-40
2021/01/01 07:16:42;;;;;;;17.13;14.20;;;3.30;99.90;;;;;;5094386;28;20210;-40
2021/01/01 07:19:10;;;;;;;15.57;13.38;;;3.20;99.90;;;;;;5094462;28;20237;-40
2021/01/01 07:21:38;;;;;;;17.65;13.80;;;3.20;99.90;;;;;;5094283;28;20229;-41
2021/01/01 07:24:06;;;;;;;16.58;14.60;;;3.10;99.90;;;;;;5094234;28;20241;-41
2021/01/01 07:26:33;;;;;;;16.08;13.15;;;3.10;99.90;;;;;;5094365;28;20243;-41
2021/01/01 07:29:01;;;;;;;15.57;13.43;;;3.00;99.90;;;;;;5094204;28;20249;-41
2021/01/01 07:31:29;;;;;;;17.88;14.27;;;2.80;99.90;;;;;;5094316;28;20534;-41
2021/01/01 07:34:10;;;;;;;16.85;13.30;;;2.70;99.90;;;;;;5093523;28;20214;-41
2021/01/01 07:36:37;;;;;;;17.95;13.48;;;2.70;99.90;;;;;;5094144;28;20624;-42
2021/01/01 07:39:06;;;;;;;16.53;14.00;;;2.70;99.90;;;;;;5093960;28;20211;-40
2021/01/01 07:41:33;;;;;;;17.85;13.88;;;2.70;99.90;;;;;;5093862;28;20213;-39
2021/01/01 07:44:00;;;;;;;19.90;14.45;;;2.80;99.90;;;;;;5093977;28;20264;-40
2021/01/01 07:46:30;;;;;;;14.52;13.05;;;2.80;99.90;;;;;;5094110;28;20210;-40
2021/01/01 07:48:58;;;;;;;19.17;14.20;;;2.80;99.90;;;;;;5094100;28;20240;-40
2021/01/01 07:51:25;;;;;;;18.00;14.18;;;2.80;99.90;;;;;;5093858;28;20649;-40
2021/01/01 07:54:11;;;;;;;15.48;12.80;;;2.90;99.90;;;;;;5093960;28;20215;-44
2021/01/01 07:56:38;;;;;;;17.10;14.38;;;3.00;99.90;;;;;;5093939;28;20297;-40
2021/01/01 07:59:06;;;;;;;17.08;14.95;;;3.10;99.90;;;;;;5094001;28;20206;-42
2021/01/01 08:01:34;;;;;;;16.85;14.40;;;3.20;99.90;;;;;;5093424;28;20625;-40
2021/01/01 08:04:02;;;;;;;21.75;14.05;;;3.20;99.90;;;;;;5093438;28;20676;-41
2021/01/01 08:06:34;;;;;;;18.70;14.73;;;3.20;99.90;;;;;;5093561;28;20615;-40
2021/01/01 08:09:05;;;;;;;18.93;14.90;;;3.20;99.90;;;;;;5093636;28;20207;-43
2021/01/01 08:11:34;;;;;;;17.10;13.90;;;3.20;99.90;;;;;;5093475;28;20265;-45
2021/01/01 08:14:01;;;;;;;19.23;13.73;;;3.30;99.90;;;;;;5093465;28;20245;-42
2021/01/01 08:16:28;;;;;;;15.70;12.27;;;3.30;99.90;;;;;;5093304;28;20747;-41
2021/01/01 08:18:55;;;;;;;15.48;12.93;;;3.40;99.90;;;;;;5093418;28;20202;-41
2021/01/01 08:21:23;;;;;;;15.02;12.68;;;3.50;99.90;;;;;;5093175;28;20202;-41
2021/01/01 08:24:03;;;;;;;17.30;13.30;;;3.60;99.90;;;;;;5093264;28;20215;-42
2021/01/01 08:26:34;;;;;;;14.88;12.98;;;3.70;99.90;;;;;;5093333;28;20207;-41
2021/01/01 08:29:02;;;;;;;17.83;13.65;;;3.70;99.90;;;;;;5093162;28;20210;-39
2021/01/01 08:31:29;;;;;;;16.15;13.80;;;3.70;99.90;;;;;;5092998;28;20206;-40
2021/01/01 08:33:56;;;;;;;20.52;15.38;;;3.80;99.90;;;;;;5093304;28;20343;-41
2021/01/01 08:36:32;;;;;;;20.83;15.05;;;3.80;99.90;;;;;;5093044;28;20234;-41
2021/01/01 08:39:07;;;;;;;17.17;14.25;;;3.80;99.90;;;;;;5093001;28;20232;-41
2021/01/01 08:41:41;;;;;;;17.88;14.23;;;3.80;99.90;;;;;;5092945;28;20365;-43
2021/01/01 08:44:09;;;;;;;17.27;14.65;;;3.90;99.90;;;;;;5092905;28;20216;-43
2021/01/01 08:46:36;;;;;;;17.40;14.20;;;3.90;99.90;;;;;;5092681;28;20302;-41
2021/01/01 08:49:17;;;;;;;18.65;15.63;;;3.90;99.90;;;;;;5092891;28;20242;-40
2021/01/01 08:51:46;;;;;;;18.45;15.05;;;4.00;99.90;;;;;;5092768;28;20268;-40
2021/01/01 08:54:30;;;;;;;17.55;15.55;;;4.10;99.80;;;;;;5092741;28;20297;-40
2021/01/01 08:56:59;;;;;;;20.05;16.25;;;4.20;99.70;;;;;;5092933;28;20275;-40
2021/01/01 08:59:27;;;;;;;17.67;15.77;;;4.30;99.70;;;;;;5092811;28;20203;-40
2021/01/01 09:01:55;;;;;;;33.65;24.05;;;4.50;99.60;;;;;;5092663;28;20230;-40
2021/01/01 09:04:24;;;;;;;24.80;18.85;;;4.60;99.40;;;;;;5092803;28;20570;-40
2021/01/01 09:06:57;;;;;;;26.13;19.60;;;4.60;99.30;;;;;;5092780;28;20547;-41
2021/01/01 09:09:29;;;;;;;23.00;18.80;;;4.70;99.30;;;;;;5092755;28;20214;-39
2021/01/01 09:12:15;;;;;;;19.98;17.85;;;4.70;99.30;;;;;;5092186;28;20696;-40
2021/01/01 09:14:44;;;;;;;23.30;18.08;;;4.60;99.40;;;;;;5092419;28;20211;-41
2021/01/01 09:17:12;;;;;;;20.08;16.75;;;4.50;99.50;;;;;;5092489;28;20288;-43
2021/01/01 09:19:40;;;;;;;18.73;16.75;;;4.50;99.60;;;;;;5092372;28;20240;-47
2021/01/01 09:22:18;;;;;;;17.33;15.50;;;4.40;99.70;;;;;;5092488;28;20555;-41
2021/01/01 09:24:47;;;;;;;18.45;15.65;;;4.40;99.70;;;;;;5092269;28;20214;-43
2021/01/01 09:27:15;;;;;;;18.80;16.02;;;4.50;99.70;;;;;;5092313;28;20242;-46
2021/01/01 09:29:42;;;;;;;19.25;16.02;;;4.50;99.60;;;;;;5092204;28;20218;-42
2021/01/01 09:32:10;;;;;;;19.35;15.18;;;4.50;99.60;;;;;;5092060;28;20308;-44
2021/01/01 09:34:37;;;;;;;17.10;14.68;;;4.60;99.60;;;;;;5092414;28;20237;-46
2021/01/01 09:37:11;;;;;;;16.55;14.75;;;4.70;99.50;;;;;;5092125;28;20207;-42
2021/01/01 09:39:39;;;;;;;18.83;15.05;;;4.80;99.30;;;;;;5092178;28;20672;-42
2021/01/01 09:42:07;;;;;;;16.92;14.95;;;4.90;99.30;;;;;;5092116;28;20675;-41
2021/01/01 09:44:34;;;;;;;18.70;15.90;;;5.00;99.10;;;;;;5092053;28;20676;-42
2021/01/01 09:47:01;;;;;;;16.30;14.10;;;5.00;99.00;;;;;;5092097;28;20265;-42
2021/01/01 09:49:28;;;;;;;19.85;15.70;;;5.00;99.10;;;;;;5092299;28;20217;-42
2021/01/01 09:51:55;;;;;;;19.00;14.90;;;5.00;99.20;;;;;;5092052;28;20241;-42
2021/01/01 09:54:36;;;;;;;16.77;14.57;;;5.00;99.20;;;;;;5091973;28;20697;-42
2021/01/01 09:57:04;;;;;;;15.75;13.85;;;5.10;99.10;;;;;;5092502;28;20214;-42
2021/01/01 09:59:31;;;;;;;20.67;18.33;;;5.30;98.90;;;;;;5095959;28;20216;-42
2021/01/01 10:01:58;;;;;;;16.88;15.05;;;5.30;98.70;;;;;;5096082;28;20297;-42
2021/01/01 10:04:25;;;;;;;18.42;15.38;;;5.40;98.60;;;;;;5095847;28;20672;-40
2021/01/01 10:06:52;;;;;;;24.88;17.77;;;5.50;98.50;;;;;;5095902;28;20637;-40
2021/01/01 10:09:19;;;;;;;20.00;17.52;;;5.60;98.40;;;;;;5095772;28;20246;-39
2021/01/01 10:11:48;;;;;;;19.08;16.33;;;5.60;98.40;;;;;;5095471;28;20242;-40
2021/01/01 10:14:16;;;;;;;18.15;16.13;;;5.70;98.30;;;;;;5095803;28;20296;-41
2021/01/01 10:16:47;;;;;;;17.58;15.40;;;5.80;98.20;;;;;;5095582;28;20672;-39
2021/01/01 10:19:15;;;;;;;19.20;14.02;;;5.90;98.10;;;;;;5095765;28;20345;-40
2021/01/01 10:21:42;;;;;;;18.92;16.50;;;6.10;97.90;;;;;;5095544;28;20730;-39
2021/01/01 10:24:09;;;;;;;18.83;15.13;;;6.20;97.70;;;;;;5095382;28;20207;-41
2021/01/01 10:26:36;;;;;;;16.33;14.73;;;6.30;97.50;;;;;;5095383;28;20299;-39
2021/01/01 10:29:14;;;;;;;15.75;14.13;;;6.40;97.40;;;;;;5095590;28;20206;-39
2021/01/01 10:31:42;;;;;;;16.13;13.32;;;6.50;97.30;;;;;;5095398;28;20744;-39
2021/01/01 10:34:10;;;;;;;14.35;12.85;;;6.60;97.10;;;;;;5095254;28;20760;-39
2021/01/01 10:36:37;;;;;;;15.10;13.57;;;6.70;97.10;;;;;;5095308;28;20242;-38
2021/01/01 10:39:05;;;;;;;18.10;11.95;;;6.80;97.10;;;;;;5095718;28;20211;-41
2021/01/01 10:41:32;;;;;;;14.45;12.73;;;6.90;96.90;;;;;;5095301;28;20264;-40
2021/01/01 10:43:59;;;;;;;13.18;11.68;;;7.00;96.90;;;;;;5095179;28;20723;-41
2021/01/01 10:46:26;;;;;;;14.02;11.73;;;6.90;97.00;;;;;;5095159;28;20213;-40
2021/01/01 10:48:54;;;;;;;14.63;12.50;;;6.80;97.00;;;;;;5095064;28;20302;-41
2021/01/01 10:51:21;;;;;;;13.50;11.45;;;6.90;97.10;;;;;;5094901;28;20289;-40
2021/01/01 10:53:48;;;;;;;17.45;15.10;;;6.80;97.10;;;;;;5094922;28;20234;-40
2021/01/01 10:56:22;;;;;;;15.43;13.43;;;6.90;97.10;;;;;;5094965;28;20574;-40
2021/01/01 10:58:50;;;;;;;13.73;12.35;;;6.80;97.20;;;;;;5094952;28;20246;-39
2021/01/01 11:01:18;;;;;;;15.55;13.75;;;6.70;97.40;;;;;;5094891;28;20203;-39
2021/01/01 11:03:46;;;;;;;13.45;12.15;;;6.70;97.60;;;;;;5094701;28;20213;-40
2021/01/01 11:06:14;;;;;;;14.82;13.23;;;6.70;97.60;;;;;;5094862;28;20256;-40
2021/01/01 11:08:42;;;;;;;13.48;11.95;;;6.70;97.70;;;;;;5093759;28;20256;-40
2021/01/01 11:11:10;;;;;;;17.23;14.20;;;6.60;97.90;;;;;;5094402;28;20369;-40
2021/01/01 11:13:41;;;;;;;15.50;13.65;;;6.50;98.00;;;;;;5094596;28;20272;-40
2021/01/01 12:20:26;;;;;;;15.88;13.63;;;5.90;99.80;;;;;;5093176;28;20446;-40
2021/01/01 12:23:02;;;;;;;16.17;13.88;;;6.00;99.90;;;;;;5093273;28;20238;-40
2021/01/01 12:25:29;;;;;;;15.00;13.32;;;6.10;99.80;;;;;;5093248;28;20206;-40
2021/01/01 12:28:00;;;;;;;16.20;13.77;;;6.20;99.60;;;;;;5093251;28;20242;-40
2021/01/01 12:30:29;;;;;;;16.48;12.73;;;6.20;99.60;;;;;;5093257;28;20259;-40
2021/01/01 12:32:57;;;;;;;14.35;12.65;;;6.10;99.70;;;;;;5093014;28;20231;-40
2021/01/01 12:35:24;;;;;;;15.20;13.15;;;6.20;99.70;;;;;;5092833;28;20688;-40
2021/01/01 12:37:59;;;;;;;17.70;14.23;;;6.20;99.60;;;;;;5093228;28;20217;-40
2021/01/01 12:40:27;;;;;;;17.98;14.70;;;6.30;99.40;;;;;;5093117;28;20203;-40
2021/01/01 12:42:55;;;;;;;16.20;13.50;;;6.40;99.40;;;;;;5092996;28;20203;-40
2021/01/01 12:45:23;;;;;;;14.85;13.32;;;6.40;99.30;;;;;;5092777;28;20302;-39
2021/01/01 12:47:52;;;;;;;15.63;13.65;;;6.50;99.30;;;;;;5092568;28;20672;-39
2021/01/01 12:50:19;;;;;;;16.80;13.20;;;6.50;99.20;;;;;;5092976;28;20305;-39
2021/01/01 12:52:55;;;;;;;17.77;14.77;;;6.40;99.20;;;;;;5092546;28;20696;-39
2021/01/01 12:55:26;;;;;;;17.63;15.10;;;6.40;99.60;;;;;;5092766;28;20214;-39
2021/01/01 12:57:53;;;;;;;16.90;13.82;;;6.50;99.70;;;;;;5092824;28;20597;-39
2021/01/01 13:00:21;;;;;;;18.08;14.38;;;6.50;99.40;;;;;;5092610;28;20222;-39
2021/01/01 13:02:48;;;;;;;17.55;14.68;;;6.50;99.50;;;;;;5092731;28;20293;-39
2021/01/01 13:05:15;;;;;;;18.90;15.65;;;6.40;99.60;;;;;;5092713;28;20373;-39
2021/01/01 13:07:42;;;;;;;23.38;17.67;;;6.30;99.80;;;;;;5092310;28;20306;-39
2021/01/01 13:10:10;;;;;;;20.92;17.73;;;6.30;99.90;;;;;;5092137;28;20671;-39
2021/01/01 13:12:38;;;;;;;21.25;16.58;;;6.20;99.90;;;;;;5092313;28;20799;-39
2021/01/01 13:15:06;;;;;;;19.48;15.10;;;6.10;99.90;;;;;;5092356;28;20306;-39
2021/01/01 13:17:33;;;;;;;19.80;15.65;;;6.10;99.90;;;;;;5092193;28;20677;-39
2021/01/01 13:20:03;;;;;;;21.85;16.02;;;6.20;99.90;;;;;;5092455;28;20234;-39
2021/01/01 13:22:30;;;;;;;22.15;15.82;;;6.20;99.90;;;;;;5092271;28;20206;-40
2021/01/01 13:24:57;;;;;;;20.65;16.42;;;6.20;99.90;;;;;;5092282;28;20301;-40
2021/01/01 13:27:26;;;;;;;21.85;15.70;;;6.10;99.90;;;;;;5092050;28;20687;-39
2021/01/01 13:29:54;;;;;;;19.55;15.70;;;6.10;99.90;;;;;;5092413;28;20215;-39
2021/01/01 13:32:21;;;;;;;20.38;16.63;;;6.10;99.90;;;;;;5091447;28;20230;-41
2021/01/01 13:34:48;;;;;;;22.77;16.70;;;6.20;99.90;;;;;;5092241;28;20206;-40
2021/01/01 13:37:16;;;;;;;20.90;16.15;;;6.20;99.90;;;;;;5091851;28;20246;-40
2021/01/01 13:39:43;;;;;;;20.30;16.15;;;6.30;99.90;;;;;;5092094;28;20559;-40
2021/01/01 13:42:11;;;;;;;23.20;17.17;;;6.30;99.90;;;;;;5091913;28;20238;-40
2021/01/01 13:44:38;;;;;;;24.85;17.88;;;6.40;99.90;;;;;;5092034;28;20294;-40
2021/01/01 13:47:06;;;;;;;20.30;16.92;;;6.40;99.90;;;;;;5092142;28;20271;-40
2021/01/01 13:49:33;;;;;;;23.02;16.88;;;6.40;99.90;;;;;;5091970;28;20213;-40